BLM weather

Bahia De Los Angelos South
Baja California, Mexico

Public forecast

Using degrees Celsius for public forecast. Weather courtesy of forecast.io.

Closest aviation weather report (METAR) to Bahia De Los Angelos South

Report is more than 2 hours old.

Closest report is General Ignacio P. Garcia International Airport, 130.8 nm (242.3 km) E. Retrieved 2020/08/04 05:40 UTC (2 hours ago):

MMHO 040540Z 12015KT 10SM SCT030 BKN090 BKN200 31/22 A2996 RMK SLP138 52008 927 8/433 CB AND LTGICCG 2ND QUAD

Closest aviation forecast (TAF) to Bahia De Los Angelos South

Closest forecast is General Ignacio P. Garcia International Airport, 130.8 nm (242.3 km) E. Retrieved 2020/08/04 06:26 UTC (1 hour ago):

TAF MMHO 040419Z 0406/0506 12005KT P6SM SCT030 BKN100 BKN200 TEMPO 0406/0409 6SM TSRA BKN020CB FM041800 25010KT P6SM SCT200 FM050300 24005KT P6SM SCT200